Time;durP1;ratioP1;P1;durP2;ratioP2;P2;SDS_P1;SDS_P2;PMS_P1;PMS_P2;Temp;Humidity;BMP_temperature;BMP_pressure;BME280_temperature;BME280_humidity;BME280_pressure;Samples;Min_cycle;Max_cycle;Signal;HPM_P1;HPM_P2
2022/08/18 00:01:10;;;;;;;16.00;14.90;;;21.70;99.90;;;;;;5034740;28;20852;-77
2022/08/18 00:03:41;;;;;;;16.80;15.50;;;21.70;99.90;;;;;;5035101;28;20420;-76
2022/08/18 00:06:29;;;;;;;17.03;15.83;;;21.70;99.90;;;;;;5033287;28;20980;-76
2022/08/18 00:09:00;;;;;;;17.43;16.10;;;21.70;99.90;;;;;;5034445;28;20449;-76
2022/08/18 00:11:32;;;;;;;17.00;15.80;;;21.70;99.90;;;;;;5034830;28;20506;-76
2022/08/18 00:14:14;;;;;;;17.40;16.00;;;21.60;99.90;;;;;;5034645;28;20423;-76
2022/08/18 00:16:52;;;;;;;16.90;15.50;;;21.60;99.90;;;;;;5034719;28;20987;-76
2022/08/18 00:19:22;;;;;;;18.53;17.13;;;21.60;99.90;;;;;;5034689;28;20423;-75
2022/08/18 00:22:12;;;;;;;19.17;17.43;;;21.50;99.90;;;;;;5034942;28;20442;-77
2022/08/18 00:24:43;;;;;;;18.10;16.60;;;21.50;99.90;;;;;;5034470;28;20451;-76
2022/08/18 00:27:20;;;;;;;19.73;18.13;;;21.50;99.90;;;;;;5034106;28;20486;-77
2022/08/18 00:29:51;;;;;;;20.87;19.27;;;21.40;99.90;;;;;;5034438;28;20454;-75
2022/08/18 00:32:22;;;;;;;22.73;20.97;;;21.40;99.90;;;;;;5034354;28;20438;-75
2022/08/18 00:34:51;;;;;;;21.70;20.10;;;21.40;99.90;;;;;;5032946;28;20438;-76
2022/08/18 00:37:21;;;;;;;26.20;24.10;;;21.30;99.90;;;;;;5033927;28;20477;-76
2022/08/18 00:39:51;;;;;;;31.17;28.37;;;21.30;99.90;;;;;;5032696;28;20546;-76
2022/08/18 00:42:22;;;;;;;39.93;35.70;;;21.30;99.90;;;;;;5034343;28;20933;-75
2022/08/18 00:44:59;;;;;;;44.63;40.03;;;21.20;99.90;;;;;;5034230;28;20419;-77
2022/08/18 00:47:28;;;;;;;48.73;43.17;;;21.10;99.90;;;;;;5034432;28;20807;-76
2022/08/18 00:50:14;;;;;;;49.27;43.20;;;21.00;99.90;;;;;;5034200;28;20767;-76
2022/08/18 00:52:50;;;;;;;48.97;43.10;;;21.00;99.90;;;;;;5034022;28;20506;-76
2022/08/18 00:55:20;;;;;;;52.00;43.87;;;20.90;99.90;;;;;;5033929;28;20775;-76
2022/08/18 00:57:52;;;;;;;49.80;44.43;;;20.90;99.90;;;;;;5033593;28;20565;-76
2022/08/18 01:00:21;;;;;;;47.73;42.63;;;20.90;99.90;;;;;;5033904;28;20426;-76
2022/08/18 01:02:54;;;;;;;49.57;44.37;;;20.90;99.90;;;;;;5034151;28;20854;-76
2022/08/18 01:05:33;;;;;;;50.03;44.53;;;20.80;99.90;;;;;;5033825;28;20451;-76
2022/08/18 01:08:03;;;;;;;47.87;42.93;;;20.80;99.90;;;;;;5033850;28;20521;-76
2022/08/18 01:10:34;;;;;;;47.17;42.47;;;20.80;99.90;;;;;;5032244;28;20455;-76
2022/08/18 01:13:02;;;;;;;46.63;41.83;;;20.80;99.90;;;;;;5032270;28;20451;-75
2022/08/18 01:15:30;;;;;;;46.47;41.97;;;20.80;99.90;;;;;;5032293;28;20904;-76
2022/08/18 01:23:58;;;;;;;45.60;41.20;;;20.80;99.90;;;;;;4975433;28;20527;-77
2022/08/18 01:26:27;;;;;;;44.77;39.97;;;20.80;99.90;;;;;;4992128;28;20456;-75
2022/08/18 01:28:55;;;;;;;42.37;38.17;;;20.70;99.90;;;;;;5001062;28;20446;-76
2022/08/18 01:31:36;;;;;;;47.07;42.50;;;20.70;99.90;;;;;;5033190;28;20439;-76
2022/08/18 01:34:06;;;;;;;43.07;38.90;;;20.70;99.90;;;;;;5033869;28;20828;-76
2022/08/18 01:36:37;;;;;;;44.80;40.20;;;20.70;99.90;;;;;;5031945;28;20558;-76
2022/08/18 01:39:08;;;;;;;43.40;39.07;;;20.70;99.90;;;;;;5032088;28;20482;-77
2022/08/18 01:41:36;;;;;;;44.17;39.90;;;20.70;99.90;;;;;;5033320;28;20788;-76
2022/08/18 01:44:07;;;;;;;41.87;37.47;;;20.70;99.90;;;;;;5032055;28;20500;-76
2022/08/18 01:46:36;;;;;;;41.40;37.17;;;20.70;99.90;;;;;;5033421;28;20450;-76
2022/08/18 01:49:07;;;;;;;44.80;40.20;;;20.70;99.90;;;;;;5033481;28;20511;-75
2022/08/18 01:51:36;;;;;;;46.57;41.47;;;20.70;99.90;;;;;;5032041;28;20450;-76
2022/08/18 01:54:11;;;;;;;45.00;40.13;;;20.70;99.90;;;;;;5031897;28;20438;-76
2022/08/18 01:56:42;;;;;;;45.13;39.73;;;20.70;99.90;;;;;;5033303;28;20475;-78
2022/08/18 01:59:13;;;;;;;46.43;37.63;;;20.70;99.90;;;;;;5033202;28;20780;-77
2022/08/18 02:01:44;;;;;;;45.30;38.37;;;20.70;99.90;;;;;;5036736;28;20885;-76
2022/08/18 02:04:22;;;;;;;41.13;36.73;;;20.70;99.90;;;;;;5037320;28;20423;-76
2022/08/18 02:07:09;;;;;;;39.57;35.37;;;20.70;99.90;;;;;;5036855;28;21017;-76
2022/08/18 02:09:40;;;;;;;39.27;35.20;;;20.60;99.90;;;;;;5035658;28;20430;-76
2022/08/18 02:12:08;;;;;;;41.10;36.77;;;20.60;99.90;;;;;;5036929;28;20423;-77
2022/08/18 02:14:37;;;;;;;43.20;38.70;;;20.60;99.90;;;;;;5037252;28;20525;-76
2022/08/18 02:17:07;;;;;;;39.60;35.60;;;20.60;99.90;;;;;;5035205;28;20481;-76
2022/08/18 02:19:38;;;;;;;39.07;34.87;;;20.60;99.90;;;;;;5035593;28;20439;-76
2022/08/18 02:22:08;;;;;;;36.77;33.10;;;20.60;99.90;;;;;;5036965;28;20781;-76
2022/08/18 02:24:36;;;;;;;37.00;33.10;;;20.60;99.90;;;;;;5037128;28;21060;-76
2022/08/18 02:27:06;;;;;;;37.70;34.00;;;20.60;99.90;;;;;;5037268;28;20454;-76
2022/08/18 02:29:34;;;;;;;35.80;32.20;;;20.60;99.90;;;;;;5040095;28;20996;-76
2022/08/18 02:32:02;;;;;;;36.30;32.57;;;20.60;99.90;;;;;;5039035;28;20439;-76
2022/08/18 02:34:30;;;;;;;36.47;32.67;;;20.60;99.90;;;;;;5038421;28;20806;-76
2022/08/18 02:37:00;;;;;;;34.30;30.60;;;20.60;99.90;;;;;;5036583;28;20470;-76
2022/08/18 02:39:28;;;;;;;35.00;30.60;;;20.60;99.90;;;;;;5036863;28;20815;-77
2022/08/18 02:41:56;;;;;;;33.87;30.50;;;20.60;99.90;;;;;;5036729;28;20838;-76
2022/08/18 02:44:26;;;;;;;33.17;29.77;;;20.60;99.90;;;;;;5036545;28;20958;-76
2022/08/18 02:46:54;;;;;;;33.33;30.07;;;20.60;99.90;;;;;;5036174;28;20462;-76
2022/08/18 02:49:23;;;;;;;34.90;30.33;;;20.70;99.90;;;;;;5036327;28;20857;-76
2022/08/18 02:51:52;;;;;;;32.90;29.37;;;20.70;99.90;;;;;;5036035;28;20447;-77
2022/08/18 02:54:22;;;;;;;32.83;29.50;;;20.70;99.90;;;;;;5036353;28;20800;-76
2022/08/18 02:56:52;;;;;;;31.53;28.47;;;20.60;99.90;;;;;;5036245;28;20561;-77
2022/08/18 02:59:23;;;;;;;30.93;27.90;;;20.60;99.90;;;;;;5036468;28;20426;-77
2022/08/18 03:01:55;;;;;;;32.23;28.83;;;20.60;99.90;;;;;;5035101;28;20899;-77
2022/08/18 03:04:27;;;;;;;32.70;29.57;;;20.70;99.90;;;;;;5037484;28;20446;-76
2022/08/18 03:07:00;;;;;;;30.47;27.60;;;20.70;99.90;;;;;;5036799;28;20874;-76
2022/08/18 03:09:29;;;;;;;29.43;26.70;;;20.70;99.90;;;;;;5035027;28;20444;-76
2022/08/18 03:11:58;;;;;;;36.07;32.50;;;20.60;99.90;;;;;;5035014;28;20569;-77
2022/08/18 03:14:27;;;;;;;32.53;29.33;;;20.70;99.90;;;;;;5036600;28;20513;-77
2022/08/18 03:16:57;;;;;;;28.80;26.10;;;20.70;99.90;;;;;;5034544;28;20466;-77
2022/08/18 03:19:27;;;;;;;28.97;26.13;;;20.60;99.90;;;;;;5034274;28;20465;-76
2022/08/18 03:21:57;;;;;;;29.27;26.47;;;20.70;99.90;;;;;;5035728;28;20474;-76
2022/08/18 03:24:31;;;;;;;28.27;25.67;;;20.70;99.90;;;;;;5034059;28;20450;-76
2022/08/18 03:27:04;;;;;;;27.73;25.03;;;20.70;99.90;;;;;;5035480;28;20455;-77
2022/08/18 03:29:33;;;;;;;28.80;26.17;;;20.70;99.90;;;;;;5036039;28;20447;-76
2022/08/18 03:32:04;;;;;;;27.83;25.17;;;20.70;99.90;;;;;;5035592;28;20450;-78
2022/08/18 03:34:33;;;;;;;28.17;25.40;;;20.70;99.90;;;;;;5033908;28;20534;-77
2022/08/18 03:37:01;;;;;;;28.13;25.43;;;20.70;99.90;;;;;;5034390;28;20459;-76
2022/08/18 03:39:29;;;;;;;27.10;24.40;;;20.70;99.90;;;;;;5035081;28;20466;-76
2022/08/18 03:41:58;;;;;;;27.50;24.90;;;20.70;99.90;;;;;;5035587;28;20952;-77
2022/08/18 03:44:30;;;;;;;28.97;26.20;;;20.70;99.90;;;;;;5034018;28;20435;-77
2022/08/18 03:46:59;;;;;;;27.97;25.37;;;20.70;99.90;;;;;;5033689;28;20929;-77
2022/08/18 03:49:29;;;;;;;28.43;25.83;;;20.70;99.90;;;;;;5035091;28;20442;-77
2022/08/18 03:51:59;;;;;;;26.90;24.40;;;20.70;99.90;;;;;;5033636;28;20446;-76
2022/08/18 03:54:28;;;;;;;30.13;27.20;;;20.70;99.90;;;;;;5033776;28;20481;-77
2022/08/18 03:56:57;;;;;;;30.87;28.07;;;20.70;99.90;;;;;;5034819;28;20451;-76
2022/08/18 03:59:26;;;;;;;33.70;30.60;;;20.70;99.90;;;;;;5034950;28;20510;-76
2022/08/18 04:01:55;;;;;;;35.10;31.40;;;20.70;99.90;;;;;;5034784;28;20530;-76
2022/08/18 04:04:25;;;;;;;33.90;30.60;;;20.70;99.90;;;;;;5033750;28;20457;-76
2022/08/18 04:06:57;;;;;;;37.40;33.63;;;20.70;99.90;;;;;;5034980;28;20537;-76
2022/08/18 04:09:27;;;;;;;37.20;33.33;;;20.70;99.90;;;;;;5034965;28;20785;-76
2022/08/18 04:11:57;;;;;;;34.70;31.27;;;20.70;99.90;;;;;;5034792;28;20426;-76
2022/08/18 04:14:28;;;;;;;38.20;34.20;;;20.70;99.90;;;;;;5034725;28;20453;-77
2022/08/18 04:16:57;;;;;;;37.47;33.37;;;20.70;99.90;;;;;;5034671;28;20878;-76
2022/08/18 04:19:26;;;;;;;37.67;33.63;;;20.70;99.90;;;;;;5034515;28;21042;-75
2022/08/18 04:21:57;;;;;;;36.70;32.80;;;20.70;99.90;;;;;;5033131;28;20489;-76
2022/08/18 04:24:27;;;;;;;34.90;31.80;;;20.70;99.90;;;;;;5032683;28;20546;-77
2022/08/18 04:27:03;;;;;;;36.43;32.83;;;20.70;99.90;;;;;;5034226;28;20474;-76
2022/08/18 04:29:31;;;;;;;33.93;30.43;;;20.70;99.90;;;;;;5034539;28;20427;-76
2022/08/18 04:32:01;;;;;;;38.50;31.57;;;20.70;99.90;;;;;;5032848;28;20497;-76
2022/08/18 04:34:29;;;;;;;33.77;30.47;;;20.70;99.90;;;;;;5034253;28;20532;-77
2022/08/18 04:37:00;;;;;;;33.60;30.10;;;20.70;99.90;;;;;;5032690;28;20542;-76
2022/08/18 04:39:29;;;;;;;34.57;31.27;;;20.70;99.90;;;;;;5034258;28;20509;-77
2022/08/18 04:41:58;;;;;;;35.20;31.77;;;20.60;99.90;;;;;;5033051;28;20871;-76
2022/08/18 04:44:26;;;;;;;34.47;31.07;;;20.60;99.90;;;;;;5032818;28;20473;-76
2022/08/18 04:46:54;;;;;;;32.47;29.47;;;20.60;99.90;;;;;;5034008;28;20509;-77
2022/08/18 04:49:25;;;;;;;33.73;30.43;;;20.60;99.90;;;;;;5034078;28;20928;-75
2022/08/18 04:55:04;;;;;;;31.93;28.57;;;20.60;99.90;;;;;;5034518;28;20916;-77
2022/08/18 04:57:32;;;;;;;33.03;29.57;;;20.60;99.90;;;;;;5034152;28;20850;-76
2022/08/18 05:00:04;;;;;;;31.70;28.47;;;20.60;99.90;;;;;;5034640;28;20502;-76
2022/08/18 05:02:33;;;;;;;30.50;27.60;;;20.60;99.90;;;;;;5034280;28;20453;-76
2022/08/18 05:05:02;;;;;;;34.53;31.27;;;20.60;99.90;;;;;;5034020;28;20479;-77
2022/08/18 05:07:32;;;;;;;31.87;28.53;;;20.60;99.90;;;;;;5034235;28;20463;-76
2022/08/18 05:10:00;;;;;;;33.37;30.07;;;20.60;99.90;;;;;;5034306;28;20433;-76
2022/08/18 05:12:30;;;;;;;34.70;31.40;;;20.60;99.90;;;;;;5032539;28;20443;-77
2022/08/18 05:14:58;;;;;;;33.87;30.67;;;20.60;99.90;;;;;;5034079;28;20531;-76
2022/08/18 05:17:27;;;;;;;33.03;29.63;;;20.60;99.90;;;;;;5032263;28;20501;-78
2022/08/18 05:19:58;;;;;;;33.57;28.93;;;20.60;99.90;;;;;;5033810;28;20455;-77
2022/08/18 05:22:28;;;;;;;32.53;29.17;;;20.50;99.90;;;;;;5033889;28;20502;-76
2022/08/18 05:24:58;;;;;;;30.00;27.10;;;20.50;99.90;;;;;;5033378;28;20454;-76
2022/08/18 05:27:34;;;;;;;31.77;27.80;;;20.50;99.90;;;;;;5033558;28;20455;-75
2022/08/18 05:30:02;;;;;;;31.63;28.43;;;20.50;99.90;;;;;;5033955;28;20437;-76
2022/08/18 05:32:33;;;;;;;31.30;27.10;;;20.40;99.90;;;;;;5033500;28;20458;-75
2022/08/18 05:35:22;;;;;;;31.80;27.00;;;20.40;99.90;;;;;;5033252;28;20872;-76
2022/08/18 05:38:18;;;;;;;28.20;25.40;;;20.40;99.90;;;;;;5036325;28;20467;-75
2022/08/18 05:40:55;;;;;;;28.37;25.23;;;20.40;99.90;;;;;;5037550;28;20896;-76
2022/08/18 05:43:25;;;;;;;29.50;26.50;;;20.40;99.90;;;;;;5036710;28;20940;-77
2022/08/18 05:45:55;;;;;;;30.63;26.30;;;20.40;99.90;;;;;;5037734;28;20529;-76
2022/08/18 05:48:24;;;;;;;30.70;27.43;;;20.50;99.90;;;;;;5037604;28;20446;-77
2022/08/18 05:50:52;;;;;;;28.47;24.67;;;20.50;99.90;;;;;;5037188;28;20431;-76
2022/08/18 05:56:45;;;;;;;27.67;24.90;;;20.50;99.90;;;;;;5037697;28;20462;-76
2022/08/18 05:59:01;;;;;;;28.47;25.73;;;20.50;99.90;;;;;;5037546;28;20578;-76
2022/08/18 06:01:33;;;;;;;25.43;22.93;;;20.50;99.90;;;;;;5036071;28;20493;-76
2022/08/18 06:04:07;;;;;;;26.23;23.73;;;20.50;99.90;;;;;;5035632;28;20435;-76
2022/08/18 06:06:37;;;;;;;31.60;24.37;;;20.50;99.90;;;;;;5035871;28;20849;-78
2022/08/18 06:09:23;;;;;;;31.90;23.63;;;20.50;99.90;;;;;;5037383;28;20439;-76
2022/08/18 06:11:56;;;;;;;24.33;21.43;;;20.60;99.90;;;;;;5037086;28;20455;-76
2022/08/18 06:14:26;;;;;;;24.23;21.90;;;20.60;99.90;;;;;;5037193;28;20453;-75
2022/08/18 06:17:04;;;;;;;28.10;25.50;;;20.60;99.90;;;;;;5035359;28;20516;-76
2022/08/18 06:19:43;;;;;;;24.40;21.87;;;20.60;99.90;;;;;;5036871;28;20516;-77
2022/08/18 06:22:21;;;;;;;24.27;21.73;;;20.70;99.90;;;;;;5037151;28;20414;-76
2022/08/18 06:24:56;;;;;;;25.20;22.50;;;20.70;99.90;;;;;;5035539;28;20577;-76
2022/08/18 06:27:33;;;;;;;26.10;23.50;;;20.70;99.90;;;;;;5035398;28;20566;-76
2022/08/18 06:30:11;;;;;;;25.67;22.67;;;20.80;99.90;;;;;;5036866;28;20419;-76
2022/08/18 06:33:03;;;;;;;25.10;22.00;;;20.80;99.90;;;;;;5035255;28;20488;-77
2022/08/18 06:35:37;;;;;;;23.20;20.90;;;20.90;99.90;;;;;;5036910;28;20463;-76
2022/08/18 06:38:39;;;;;;;22.40;20.10;;;20.90;99.90;;;;;;5035649;28;20538;-77
2022/08/18 06:41:17;;;;;;;22.43;20.13;;;21.00;99.90;;;;;;5035315;28;20477;-77
2022/08/18 06:44:08;;;;;;;22.57;20.47;;;21.10;99.90;;;;;;5035965;28;20501;-76
2022/08/18 06:46:42;;;;;;;24.13;21.63;;;21.20;99.90;;;;;;5034887;28;20463;-76
2022/08/18 06:49:12;;;;;;;23.90;21.50;;;21.20;99.90;;;;;;5035251;28;20924;-76
2022/08/18 06:51:40;;;;;;;22.40;20.27;;;21.20;99.90;;;;;;5036872;28;20477;-76
2022/08/18 06:54:28;;;;;;;23.00;20.57;;;21.30;99.90;;;;;;5036665;28;20635;-76
2022/08/18 06:56:57;;;;;;;23.83;21.63;;;21.30;99.90;;;;;;5034820;28;20466;-77
2022/08/18 06:59:28;;;;;;;23.43;21.17;;;21.20;99.90;;;;;;5036213;28;20493;-77
2022/08/18 07:02:00;;;;;;;23.83;21.47;;;21.20;99.90;;;;;;5035013;28;20443;-75
2022/08/18 07:04:37;;;;;;;25.63;23.23;;;21.20;99.90;;;;;;5038122;28;20962;-78
2022/08/18 07:07:29;;;;;;;23.33;21.10;;;21.20;99.90;;;;;;5039417;28;20481;-78
2022/08/18 07:10:29;;;;;;;25.33;22.73;;;21.20;99.90;;;;;;5037852;28;20500;-78
2022/08/18 07:13:14;;;;;;;22.13;20.07;;;21.20;99.90;;;;;;5040796;28;20486;-78
2022/08/18 07:15:44;;;;;;;23.40;20.27;;;21.20;99.90;;;;;;5038198;28;20446;-79
2022/08/18 07:18:16;;;;;;;22.80;20.70;;;21.20;99.90;;;;;;5038754;28;20431;-79
2022/08/18 07:20:47;;;;;;;24.90;22.13;;;21.30;99.90;;;;;;5038583;28;20463;-78
2022/08/18 07:23:27;;;;;;;24.47;22.17;;;21.30;99.90;;;;;;5037228;28;20454;-78
2022/08/18 07:26:07;;;;;;;22.50;20.23;;;21.30;99.90;;;;;;5036817;28;20454;-76
2022/08/18 07:28:38;;;;;;;23.13;20.93;;;21.30;99.90;;;;;;5034716;28;20471;-77
2022/08/18 07:31:16;;;;;;;23.60;21.33;;;21.30;99.90;;;;;;5036446;28;20909;-78
2022/08/18 07:33:54;;;;;;;22.67;20.57;;;21.30;99.90;;;;;;5036447;28;20461;-78
2022/08/18 07:36:28;;;;;;;23.90;21.50;;;21.30;99.90;;;;;;5035833;28;20569;-76
2022/08/18 07:39:02;;;;;;;22.30;20.10;;;21.30;99.90;;;;;;5035234;28;20467;-78
2022/08/18 07:41:36;;;;;;;22.07;20.00;;;21.40;99.90;;;;;;5036795;28;20558;-77
2022/08/18 07:44:15;;;;;;;21.70;19.80;;;21.40;99.90;;;;;;5036300;28;20870;-77
2022/08/18 07:46:51;;;;;;;20.70;18.77;;;21.40;99.90;;;;;;5036199;28;20922;-78
2022/08/18 07:49:23;;;;;;;21.30;19.30;;;21.50;99.90;;;;;;5034554;28;20446;-77
2022/08/18 07:52:01;;;;;;;22.70;20.57;;;21.50;99.90;;;;;;5034365;28;20443;-77
2022/08/18 07:54:46;;;;;;;21.23;19.23;;;21.60;99.90;;;;;;5036006;28;20502;-77
2022/08/18 07:57:26;;;;;;;21.40;19.50;;;21.70;99.90;;;;;;5034878;28;20495;-77
2022/08/18 08:00:03;;;;;;;22.33;20.13;;;21.80;99.90;;;;;;5035715;28;20508;-77
2022/08/18 08:02:55;;;;;;;22.77;20.67;;;21.80;99.90;;;;;;5033954;28;20943;-77
2022/08/18 08:05:42;;;;;;;22.60;20.43;;;21.90;99.90;;;;;;5033858;28;20500;-77
2022/08/18 08:08:20;;;;;;;21.20;19.10;;;22.00;99.90;;;;;;5035485;28;20419;-77
2022/08/18 08:11:04;;;;;;;23.17;21.00;;;22.00;99.90;;;;;;5035584;28;20415;-76
2022/08/18 08:13:46;;;;;;;22.80;20.60;;;22.00;99.90;;;;;;5034634;28;20490;-78
2022/08/18 08:16:35;;;;;;;22.93;20.83;;;22.00;99.90;;;;;;5036395;28;20467;-79
2022/08/18 08:19:12;;;;;;;21.90;19.90;;;22.00;99.90;;;;;;5035787;28;21051;-75
2022/08/18 08:21:48;;;;;;;20.70;18.80;;;22.00;99.90;;;;;;5033681;28;20463;-77
2022/08/18 08:24:28;;;;;;;21.93;19.77;;;22.00;99.90;;;;;;5035580;28;20976;-77
2022/08/18 08:27:09;;;;;;;22.07;19.97;;;22.10;99.90;;;;;;5035266;28;21026;-78
2022/08/18 08:29:47;;;;;;;21.47;19.27;;;22.10;99.90;;;;;;5035609;28;20423;-78
2022/08/18 08:32:23;;;;;;;20.10;18.00;;;22.10;99.90;;;;;;5035649;28;20470;-79
2022/08/18 08:34:55;;;;;;;19.63;17.60;;;22.20;99.90;;;;;;5035070;28;20428;-76
2022/08/18 08:37:32;;;;;;;19.37;17.50;;;22.20;99.90;;;;;;5035600;28;20486;-76
2022/08/18 08:40:07;;;;;;;20.40;18.33;;;22.20;99.90;;;;;;5037340;28;20459;-78
2022/08/18 08:42:45;;;;;;;20.87;18.47;;;22.30;99.90;;;;;;5035874;28;20789;-78
2022/08/18 08:45:18;;;;;;;20.03;18.20;;;22.30;99.90;;;;;;5033906;28;20439;-77
2022/08/18 08:47:59;;;;;;;23.20;17.83;;;22.30;99.90;;;;;;5034851;28;20482;-76
2022/08/18 08:50:41;;;;;;;21.00;18.90;;;22.40;99.90;;;;;;5035129;28;20904;-78
2022/08/18 08:53:18;;;;;;;19.03;17.10;;;22.40;99.90;;;;;;5033356;28;20501;-76
2022/08/18 08:55:50;;;;;;;19.30;17.50;;;22.40;99.90;;;;;;5035280;28;20494;-78
2022/08/18 08:58:24;;;;;;;18.50;16.70;;;22.50;99.90;;;;;;5033647;28;20443;-79
2022/08/18 09:00:54;;;;;;;19.47;17.40;;;22.60;99.90;;;;;;5033585;28;21031;-78
2022/08/18 09:03:39;;;;;;;18.30;16.17;;;22.60;99.90;;;;;;5033792;28;20906;-77
2022/08/18 09:06:18;;;;;;;17.63;15.93;;;22.70;99.90;;;;;;5034513;28;20841;-78
2022/08/18 09:09:02;;;;;;;17.97;16.17;;;22.80;99.90;;;;;;5034522;28;20423;-77
2022/08/18 09:11:58;;;;;;;20.70;14.97;;;22.80;99.90;;;;;;5033530;28;20467;-76
2022/08/18 09:14:44;;;;;;;19.40;15.63;;;22.90;99.90;;;;;;5034677;28;20514;-76
2022/08/18 09:17:42;;;;;;;16.90;15.37;;;22.90;99.90;;;;;;5033576;28;20478;-77
2022/08/18 09:20:43;;;;;;;18.30;16.50;;;22.90;99.90;;;;;;5032621;28;20447;-76
2022/08/18 09:23:19;;;;;;;16.60;14.97;;;23.00;99.90;;;;;;5033147;28;20514;-77
2022/08/18 09:25:52;;;;;;;19.90;15.53;;;23.10;99.90;;;;;;5033895;28;20419;-77
2022/08/18 09:28:23;;;;;;;17.97;16.17;;;23.20;99.90;;;;;;5034248;28;20878;-76
2022/08/18 09:31:09;;;;;;;15.13;13.53;;;23.30;99.90;;;;;;5032866;28;20443;-78
2022/08/18 09:33:57;;;;;;;16.97;14.30;;;23.30;99.90;;;;;;5034018;28;20447;-76
2022/08/18 09:36:50;;;;;;;16.47;14.97;;;23.40;99.90;;;;;;5032507;28;20459;-76
2022/08/18 09:42:35;;;;;;;15.63;13.97;;;23.60;99.90;;;;;;5033684;28;20562;-76
2022/08/18 09:45:51;;;;;;;16.80;14.40;;;23.70;99.90;;;;;;5034600;28;20428;-77
2022/08/18 09:48:32;;;;;;;16.53;13.60;;;23.80;99.90;;;;;;5032653;28;20457;-77
2022/08/18 09:51:32;;;;;;;17.03;15.43;;;23.90;99.90;;;;;;5034226;28;20933;-77
2022/08/18 09:54:19;;;;;;;15.93;14.20;;;24.00;99.90;;;;;;5033107;28;20876;-77
2022/08/18 09:57:18;;;;;;;15.90;14.30;;;24.20;99.90;;;;;;5035319;28;20463;-78
2022/08/18 10:00:26;;;;;;;14.30;13.00;;;24.30;99.90;;;;;;5034892;28;20971;-77
2022/08/18 10:03:12;;;;;;;14.37;13.07;;;24.50;99.90;;;;;;5034290;28;20948;-76
2022/08/18 10:05:57;;;;;;;13.00;11.90;;;24.50;99.90;;;;;;5034374;28;20423;-78
2022/08/18 10:09:04;;;;;;;14.70;13.37;;;24.60;99.90;;;;;;5034536;28;20442;-76
2022/08/18 10:12:17;;;;;;;14.30;13.00;;;24.70;99.90;;;;;;5033299;28;20789;-77
2022/08/18 10:15:26;;;;;;;12.03;10.90;;;24.80;99.90;;;;;;5034399;28;20423;-76
2022/08/18 10:18:17;;;;;;;13.67;12.40;;;24.80;99.90;;;;;;4997619;28;20450;-76
2022/08/18 10:20:59;;;;;;;12.57;11.57;;;24.80;99.90;;;;;;5034281;28;20470;-77
2022/08/18 10:23:48;;;;;;;11.80;10.70;;;24.80;99.90;;;;;;5037452;28;20430;-77
2022/08/18 10:27:03;;;;;;;11.70;10.50;;;24.80;99.90;;;;;;5036075;28;20883;-75
2022/08/18 10:29:58;;;;;;;10.97;9.97;;;24.80;99.90;;;;;;5028444;28;20473;-76
2022/08/18 10:32:46;;;;;;;11.73;10.63;;;24.80;99.90;;;;;;5037428;28;20443;-76
2022/08/18 10:35:57;;;;;;;12.53;11.23;;;24.80;99.90;;;;;;5035745;28;20867;-77
2022/08/18 10:38:45;;;;;;;10.53;9.63;;;24.90;99.90;;;;;;5037468;28;20430;-77
2022/08/18 10:41:27;;;;;;;10.43;9.43;;;25.00;99.90;;;;;;5037212;28;20458;-76
2022/08/18 10:44:01;;;;;;;10.40;9.37;;;25.10;99.90;;;;;;5036028;28;20439;-76
2022/08/18 10:46:52;;;;;;;8.97;8.07;;;25.10;99.90;;;;;;5035612;28;20540;-76
2022/08/18 10:49:25;;;;;;;9.90;8.90;;;25.10;99.90;;;;;;5036547;28;20415;-78
2022/08/18 10:52:16;;;;;;;10.23;9.17;;;25.10;99.90;;;;;;5037022;28;20434;-79
2022/08/18 10:55:06;;;;;;;9.87;9.07;;;25.10;99.90;;;;;;5036798;28;20473;-77
2022/08/18 10:57:54;;;;;;;11.23;10.13;;;25.20;99.90;;;;;;5035580;28;20463;-77
2022/08/18 11:00:36;;;;;;;10.70;9.73;;;25.30;99.90;;;;;;5037203;28;20438;-77
2022/08/18 11:03:16;;;;;;;9.73;8.87;;;25.40;99.90;;;;;;5036005;28;20466;-78
2022/08/18 11:06:13;;;;;;;9.57;8.67;;;25.50;99.90;;;;;;5035152;28;20470;-77
2022/08/18 11:08:52;;;;;;;11.73;10.53;;;25.70;99.90;;;;;;5037018;28;20427;-77
2022/08/18 11:11:28;;;;;;;8.63;7.83;;;25.80;99.90;;;;;;5036874;28;20443;-78
2022/08/18 11:14:23;;;;;;;10.27;9.30;;;25.80;99.90;;;;;;5036964;28;20431;-77
2022/08/18 11:17:01;;;;;;;8.70;7.90;;;25.80;99.90;;;;;;5036393;28;21015;-76
2022/08/18 11:19:37;;;;;;;10.37;9.33;;;25.70;99.90;;;;;;5035842;28;20431;-76
2022/08/18 11:22:23;;;;;;;9.83;7.93;;;25.60;99.90;;;;;;5036154;28;20960;-77
2022/08/18 11:25:01;;;;;;;8.47;7.67;;;25.50;99.90;;;;;;5034615;28;21014;-76
2022/08/18 11:27:34;;;;;;;10.70;8.33;;;25.40;99.90;;;;;;5036255;28;20467;-76
2022/08/18 11:30:06;;;;;;;8.23;7.43;;;25.30;99.90;;;;;;5034444;28;20498;-77
2022/08/18 11:32:36;;;;;;;10.10;7.30;;;25.20;99.90;;;;;;5035949;28;20416;-76
2022/08/18 11:35:15;;;;;;;10.40;7.63;;;25.20;99.90;;;;;;5037204;28;20442;-77
2022/08/18 11:37:50;;;;;;;7.93;7.13;;;25.20;99.90;;;;;;5035433;28;20512;-75
2022/08/18 11:40:40;;;;;;;10.30;8.50;;;25.20;99.90;;;;;;5035884;28;20517;-77
2022/08/18 11:43:32;;;;;;;8.97;7.40;;;25.20;99.90;;;;;;5034145;28;20996;-77
2022/08/18 11:46:14;;;;;;;8.30;7.03;;;25.30;99.90;;;;;;5035540;28;20458;-78
2022/08/18 11:48:45;;;;;;;8.33;7.60;;;25.30;99.90;;;;;;5036108;28;20430;-76
2022/08/18 11:51:24;;;;;;;8.27;7.60;;;25.30;99.90;;;;;;5035602;28;20514;-76
2022/08/18 11:53:56;;;;;;;8.73;7.90;;;25.30;99.90;;;;;;5035693;28;20514;-77
2022/08/18 11:56:29;;;;;;;7.93;7.23;;;25.30;99.90;;;;;;5036103;28;20454;-77
2022/08/18 11:59:34;;;;;;;8.10;7.30;;;25.30;99.90;;;;;;5035967;28;20782;-77
2022/08/18 12:02:25;;;;;;;8.20;7.47;;;25.30;99.90;;;;;;5035531;28;20510;-77
2022/08/18 12:04:59;;;;;;;7.50;6.70;;;25.30;99.90;;;;;;5036064;28;20446;-78
2022/08/18 12:07:41;;;;;;;7.40;6.63;;;25.30;99.90;;;;;;5038126;28;20462;-78
2022/08/18 12:10:28;;;;;;;7.20;6.60;;;25.30;99.90;;;;;;5040139;28;20431;-78
2022/08/18 12:12:58;;;;;;;8.63;7.73;;;25.30;99.90;;;;;;5035757;28;20486;-77
2022/08/18 12:15:30;;;;;;;12.43;7.97;;;25.30;99.90;;;;;;5035215;28;20438;-77
2022/08/18 12:18:11;;;;;;;13.17;7.10;;;25.40;99.90;;;;;;5033749;28;20451;-77
2022/08/18 12:20:55;;;;;;;8.57;7.77;;;25.40;99.90;;;;;;5033822;28;20447;-77
2022/08/18 12:23:24;;;;;;;8.07;7.27;;;25.50;99.90;;;;;;5035050;28;20506;-77
2022/08/18 12:25:54;;;;;;;7.53;6.83;;;25.50;99.90;;;;;;5035206;28;20450;-77
2022/08/18 12:28:22;;;;;;;10.70;7.53;;;25.50;99.90;;;;;;5035764;28;20497;-78
2022/08/18 12:31:46;;;;;;;7.57;6.90;;;25.50;99.90;;;;;;5033360;28;20841;-77
2022/08/18 12:34:16;;;;;;;9.77;7.73;;;25.50;99.90;;;;;;5035175;28;20443;-76
2022/08/18 12:36:55;;;;;;;8.30;7.60;;;25.50;99.90;;;;;;5034041;28;20517;-76
2022/08/18 12:39:23;;;;;;;8.57;7.87;;;25.50;99.90;;;;;;5034829;28;20443;-76
2022/08/18 12:41:53;;;;;;;9.13;7.50;;;25.50;99.90;;;;;;5035238;28;20435;-77
2022/08/18 12:44:21;;;;;;;8.80;7.80;;;25.60;99.90;;;;;;5035030;28;20880;-78
2022/08/18 12:46:54;;;;;;;10.33;7.90;;;25.60;99.90;;;;;;5035480;28;20459;-76
2022/08/18 12:49:24;;;;;;;7.97;7.27;;;25.70;99.90;;;;;;5034505;28;20427;-77
2022/08/18 12:52:13;;;;;;;9.43;7.30;;;25.70;99.90;;;;;;5034615;28;20435;-76
2022/08/18 12:54:45;;;;;;;7.40;6.67;;;25.80;99.90;;;;;;5033330;28;20439;-77
2022/08/18 12:57:27;;;;;;;8.37;7.43;;;25.80;99.90;;;;;;5034536;28;20458;-77
2022/08/18 13:00:17;;;;;;;11.47;8.23;;;25.80;99.90;;;;;;5033103;28;20457;-77
2022/08/18 13:02:45;;;;;;;10.10;7.47;;;25.80;99.90;;;;;;5032900;28;20486;-76
2022/08/18 13:05:14;;;;;;;9.83;7.87;;;25.80;99.90;;;;;;5034865;28;20463;-77
2022/08/18 13:07:43;;;;;;;8.43;7.63;;;25.80;99.90;;;;;;5034049;28;20474;-78
2022/08/18 13:10:11;;;;;;;9.10;8.03;;;25.80;99.90;;;;;;5034410;28;20533;-76
2022/08/18 13:13:01;;;;;;;8.50;7.27;;;25.80;99.90;;;;;;5035106;28;20434;-76
2022/08/18 13:15:29;;;;;;;9.20;7.97;;;25.70;99.90;;;;;;5034086;28;20439;-78
2022/08/18 13:17:57;;;;;;;9.03;7.43;;;25.70;99.90;;;;;;5034711;28;20447;-77
2022/08/18 13:20:26;;;;;;;8.97;6.70;;;25.70;99.90;;;;;;5034211;28;20944;-76
2022/08/18 13:22:54;;;;;;;8.60;7.73;;;25.60;99.90;;;;;;5033978;28;20990;-78
2022/08/18 13:25:23;;;;;;;8.40;7.63;;;25.60;99.90;;;;;;5033841;28;20448;-76
2022/08/18 13:28:01;;;;;;;9.47;8.40;;;25.60;99.90;;;;;;5033871;28;20443;-77
2022/08/18 13:30:30;;;;;;;9.07;8.33;;;25.50;99.90;;;;;;5032700;28;20454;-76
2022/08/18 13:33:00;;;;;;;10.20;8.10;;;25.50;99.90;;;;;;5033681;28;20461;-76